createdAt,value
2024-02-06T00:03:25.506Z,20.40
2024-02-06T00:07:47.372Z,11.00
2024-02-06T00:12:11.475Z,13.45
2024-02-06T00:16:33.631Z,14.80
2024-02-06T00:20:55.633Z,17.80
2024-02-06T00:25:17.618Z,14.73
2024-02-06T00:29:39.736Z,16.75
2024-02-06T00:34:01.823Z,26.15
2024-02-06T00:38:23.441Z,16.52
2024-02-06T00:42:45.486Z,13.57
2024-02-06T00:47:07.362Z,19.30
2024-02-06T00:51:29.340Z,22.85
2024-02-06T00:55:51.188Z,14.70
2024-02-06T01:00:13.987Z,19.33
2024-02-06T01:04:36.014Z,19.33
2024-02-06T01:08:57.774Z,11.00
2024-02-06T01:13:19.826Z,17.38
2024-02-06T01:17:41.868Z,19.17
2024-02-06T01:22:04.419Z,16.40
2024-02-06T01:26:26.472Z,10.05
2024-02-06T01:30:49.485Z,15.82
2024-02-06T01:35:13.684Z,17.25
2024-02-06T01:39:35.517Z,13.75
2024-02-06T01:43:57.607Z,24.20
2024-02-06T01:48:20.244Z,16.48
2024-02-06T01:52:42.473Z,15.65
2024-02-06T01:57:04.528Z,13.40
2024-02-06T02:01:26.551Z,14.95
2024-02-06T02:05:48.934Z,15.38
2024-02-06T02:10:11.307Z,17.90
2024-02-06T02:14:33.321Z,14.23
2024-02-06T02:18:57.304Z,18.52
2024-02-06T02:23:25.406Z,14.70
2024-02-06T02:27:51.492Z,14.10
2024-02-06T02:32:14.625Z,24.60
2024-02-06T02:36:38.805Z,14.40
2024-02-06T02:41:00.926Z,15.15
2024-02-06T02:45:22.886Z,17.33
2024-02-06T02:49:44.658Z,21.10
2024-02-06T02:54:06.719Z,14.25
2024-02-06T02:58:28.611Z,18.08
2024-02-06T03:02:50.627Z,22.52
2024-02-06T03:07:12.572Z,20.35
2024-02-06T03:11:34.596Z,17.88
2024-02-06T03:15:56.897Z,17.75
2024-02-06T03:20:20.579Z,23.83
2024-02-06T03:24:42.619Z,17.05
2024-02-06T03:29:04.858Z,22.15
2024-02-06T03:33:26.758Z,20.60
2024-02-06T03:37:48.943Z,21.27
2024-02-06T03:42:10.875Z,18.92
2024-02-06T03:46:33.047Z,17.23
2024-02-06T03:50:55.075Z,13.63
2024-02-06T03:55:19.531Z,19.00
2024-02-06T03:59:41.230Z,17.52
2024-02-06T04:04:03.176Z,19.33
2024-02-06T04:08:25.260Z,18.95
2024-02-06T04:12:47.178Z,28.33
2024-02-06T04:17:09.307Z,13.43
2024-02-06T04:21:31.184Z,14.30
2024-02-06T04:25:53.422Z,20.05
2024-02-06T04:30:15.859Z,23.63
2024-02-06T04:34:37.582Z,17.10
2024-02-06T04:38:59.364Z,15.25
2024-02-06T04:43:24.671Z,17.95
2024-02-06T04:47:46.413Z,26.77
2024-02-06T04:52:08.662Z,24.98
2024-02-06T04:56:30.641Z,24.15
2024-02-06T05:00:52.729Z,18.25
2024-02-06T05:05:15.292Z,14.55
2024-02-06T05:09:37.696Z,17.20
2024-02-06T05:13:59.944Z,22.35
2024-02-06T05:18:21.610Z,19.90
2024-02-06T05:22:43.593Z,18.20
2024-02-06T05:27:05.835Z,18.63
2024-02-06T05:31:28.262Z,13.48
2024-02-06T05:35:53.407Z,17.83
2024-02-06T05:40:16.776Z,23.00
2024-02-06T05:44:39.580Z,19.00
2024-02-06T05:49:01.597Z,19.60
2024-02-06T05:53:23.524Z,20.13
2024-02-06T05:57:45.684Z,23.00
2024-02-06T06:02:07.908Z,14.43
2024-02-06T06:06:30.024Z,12.88
2024-02-06T06:10:51.809Z,13.73
2024-02-06T06:15:14.630Z,16.67
2024-02-06T06:19:36.890Z,18.77
2024-02-06T06:23:58.695Z,15.73
2024-02-06T06:28:20.502Z,13.40
2024-02-06T06:32:42.947Z,13.93
2024-02-06T06:37:05.814Z,11.73
2024-02-06T06:41:27.787Z,12.20
2024-02-06T06:45:49.672Z,13.02
2024-02-06T06:50:12.179Z,14.52
2024-02-06T06:54:35.444Z,13.70
2024-02-06T06:58:57.436Z,12.88
2024-02-06T07:07:41.978Z,12.13
2024-02-06T07:12:05.115Z,12.65
2024-02-06T07:16:27.114Z,7.38
2024-02-06T07:20:49.263Z,11.57
2024-02-06T07:25:11.028Z,10.63
2024-02-06T07:29:33.156Z,8.05
2024-02-06T07:33:55.473Z,13.50
2024-02-06T07:38:17.340Z,11.38
2024-02-06T07:42:39.254Z,11.07
2024-02-06T07:47:01.148Z,10.73
2024-02-06T07:51:23.782Z,5.95
2024-02-06T07:55:46.124Z,8.43
2024-02-06T08:00:10.570Z,5.63
2024-02-06T08:04:34.038Z,9.73
2024-02-06T08:08:56.095Z,6.35
2024-02-06T08:13:18.201Z,7.80
2024-02-06T08:17:48.606Z,5.22
2024-02-06T08:22:11.085Z,6.68
2024-02-06T08:26:33.078Z,9.43
2024-02-06T08:30:57.326Z,8.80
2024-02-06T08:35:21.361Z,5.40
2024-02-06T08:39:43.136Z,6.18
2024-02-06T08:44:05.746Z,9.35
2024-02-06T08:48:34.086Z,13.02
2024-02-06T08:52:58.029Z,7.40
2024-02-06T08:57:20.313Z,4.95
2024-02-06T09:01:43.828Z,6.20
2024-02-06T09:06:07.207Z,6.68
2024-02-06T09:10:29.371Z,8.13
2024-02-06T09:14:51.461Z,6.60
2024-02-06T09:19:13.642Z,6.47
2024-02-06T09:23:35.438Z,8.50
2024-02-06T09:27:58.570Z,7.45
2024-02-06T09:32:20.287Z,9.20
2024-02-06T09:36:47.148Z,7.78
2024-02-06T09:41:13.750Z,9.80
2024-02-06T09:45:36.717Z,5.30
2024-02-06T09:49:58.968Z,9.25
2024-02-06T09:54:26.753Z,8.13
2024-02-06T09:58:48.805Z,4.75
2024-02-06T10:03:18.427Z,6.70
2024-02-06T10:07:40.735Z,6.47
2024-02-06T10:12:03.896Z,7.93
2024-02-06T10:16:25.677Z,10.68
2024-02-06T10:20:49.253Z,8.85
2024-02-06T10:25:12.980Z,7.13
2024-02-06T10:29:35.962Z,9.18
2024-02-06T10:34:13.646Z,6.20
2024-02-06T10:38:36.033Z,11.50
2024-02-06T10:43:32.712Z,6.97
2024-02-06T10:47:40.615Z,16.65
2024-02-06T10:52:09.294Z,9.60
2024-02-06T10:56:35.212Z,8.23
2024-02-06T11:00:57.906Z,6.15
2024-02-06T11:06:18.481Z,7.72
2024-02-06T11:10:51.042Z,6.30
2024-02-06T11:15:14.248Z,5.95
2024-02-06T11:19:59.537Z,6.97
2024-02-06T11:24:23.266Z,7.60
2024-02-06T11:28:45.745Z,5.72
2024-02-06T11:33:11.605Z,7.00
2024-02-06T11:37:33.395Z,5.80
2024-02-06T11:42:02.266Z,5.78
2024-02-06T11:46:24.693Z,7.43
2024-02-06T11:50:47.205Z,10.48
2024-02-06T11:55:09.891Z,6.53
2024-02-06T11:59:31.820Z,8.05
2024-02-06T12:04:01.130Z,8.43
2024-02-06T12:08:26.012Z,8.55
2024-02-06T12:12:49.122Z,7.57
2024-02-06T12:17:11.521Z,5.88
2024-02-06T12:21:35.102Z,17.30
2024-02-06T12:25:56.997Z,6.03
2024-02-06T12:30:30.144Z,13.68
2024-02-06T12:34:53.519Z,5.47
2024-02-06T12:39:18.638Z,4.75
2024-02-06T12:43:40.703Z,6.93
2024-02-06T12:48:04.673Z,5.28
2024-02-06T12:52:26.871Z,7.25
2024-02-06T12:56:49.397Z,6.68
2024-02-06T13:01:12.153Z,12.60
2024-02-06T13:05:36.576Z,6.33
2024-02-06T13:10:05.102Z,10.30
2024-02-06T13:14:27.620Z,5.38
2024-02-06T13:19:02.359Z,6.55
2024-02-06T13:23:25.611Z,5.63
2024-02-06T13:27:47.295Z,4.20
2024-02-06T13:32:09.514Z,4.72
2024-02-06T13:36:34.720Z,4.47
2024-02-06T13:40:57.081Z,2.78
2024-02-06T13:45:19.294Z,6.38
2024-02-06T13:49:41.601Z,5.13
2024-02-06T13:54:04.152Z,6.45
2024-02-06T13:58:26.183Z,5.90
2024-02-06T14:02:48.740Z,4.72
2024-02-06T14:07:17.757Z,9.10
2024-02-06T14:11:43.715Z,6.95
2024-02-06T14:16:06.423Z,6.75
2024-02-06T14:20:28.761Z,5.15
2024-02-06T14:24:51.182Z,3.63
2024-02-06T14:29:13.237Z,8.13
2024-02-06T14:33:35.407Z,7.68
2024-02-06T14:37:57.491Z,3.78
2024-02-06T14:42:19.665Z,6.65
2024-02-06T14:46:41.768Z,5.15
2024-02-06T14:51:04.077Z,4.53
2024-02-06T14:55:25.914Z,4.50
2024-02-06T14:59:47.801Z,4.07
2024-02-06T15:04:09.870Z,6.40
2024-02-06T15:08:31.909Z,6.05
2024-02-06T15:12:54.099Z,7.13
2024-02-06T15:17:16.176Z,6.15
2024-02-06T15:21:38.168Z,6.30
2024-02-06T15:26:01.045Z,8.25
2024-02-06T15:30:23.225Z,6.68
2024-02-06T15:34:45.359Z,12.20
2024-02-06T15:39:10.913Z,8.65
2024-02-06T15:43:33.000Z,6.60
2024-02-06T15:47:55.059Z,8.68
2024-02-06T15:52:17.219Z,9.25
2024-02-06T15:56:39.271Z,8.20
2024-02-06T16:01:01.744Z,12.80
2024-02-06T16:05:24.115Z,12.52
2024-02-06T16:09:48.567Z,11.80
2024-02-06T16:14:12.331Z,12.88
2024-02-06T16:18:36.329Z,10.55
2024-02-06T16:22:58.237Z,7.85
2024-02-06T16:27:21.008Z,9.25
2024-02-06T16:31:43.199Z,12.25
2024-02-06T16:36:15.486Z,9.80
2024-02-06T16:40:40.272Z,14.80
2024-02-06T16:45:01.993Z,13.75
2024-02-06T16:49:24.260Z,10.77
2024-02-06T16:53:46.116Z,17.20
2024-02-06T16:58:08.777Z,11.63
2024-02-06T17:02:30.990Z,13.10
2024-02-06T17:06:52.681Z,10.32
2024-02-06T17:11:14.726Z,11.07
2024-02-06T17:15:36.791Z,11.00
2024-02-06T17:19:58.781Z,9.43
2024-02-06T17:24:23.174Z,10.23
2024-02-06T17:28:45.104Z,15.30
2024-02-06T17:33:11.159Z,10.27
2024-02-06T17:37:33.494Z,12.60
2024-02-06T17:41:55.906Z,9.98
2024-02-06T17:46:18.316Z,15.15
2024-02-06T17:50:40.479Z,10.82
2024-02-06T17:55:02.408Z,12.32
2024-02-06T17:59:25.198Z,13.15
2024-02-06T18:03:47.268Z,7.22
2024-02-06T18:08:09.469Z,8.35
2024-02-06T18:12:31.416Z,12.38
2024-02-06T18:17:11.820Z,8.70
2024-02-06T18:21:33.691Z,7.25
2024-02-06T18:25:56.856Z,11.18
2024-02-06T18:30:20.850Z,10.68
2024-02-06T18:34:46.362Z,8.98
2024-02-06T18:39:08.668Z,8.57
2024-02-06T18:43:35.948Z,11.77
2024-02-06T18:47:58.024Z,5.57
2024-02-06T18:52:20.071Z,12.05
2024-02-06T18:56:42.633Z,8.95
2024-02-06T19:01:05.073Z,7.88
2024-02-06T19:05:27.202Z,4.50
2024-02-06T19:09:49.053Z,9.02
2024-02-06T19:14:11.228Z,7.25
2024-02-06T19:18:33.231Z,7.78
2024-02-06T19:22:55.388Z,4.80
2024-02-06T19:27:17.562Z,5.72
2024-02-06T19:31:46.760Z,2.63
2024-02-06T19:36:11.672Z,4.18
2024-02-06T19:40:34.178Z,3.97
2024-02-06T19:45:03.646Z,8.23
2024-02-06T19:49:25.879Z,9.77
2024-02-06T19:53:48.415Z,6.40
2024-02-06T19:58:14.054Z,6.70
2024-02-06T20:02:36.040Z,9.13
2024-02-06T20:06:58.156Z,5.60
2024-02-06T20:11:23.935Z,5.53
2024-02-06T20:15:59.438Z,9.52
2024-02-06T20:20:25.380Z,6.72
2024-02-06T20:29:34.633Z,4.47
2024-02-06T20:33:56.556Z,5.88
2024-02-06T20:38:18.628Z,7.57
2024-02-06T20:42:41.173Z,6.78
2024-02-06T20:47:04.022Z,5.03
2024-02-06T20:51:25.925Z,5.75
2024-02-06T20:55:48.411Z,5.80
2024-02-06T21:00:12.807Z,7.95
2024-02-06T21:04:34.678Z,5.57
2024-02-06T21:08:56.701Z,4.03
2024-02-06T21:13:20.480Z,6.72
2024-02-06T21:17:42.864Z,7.72
2024-02-06T21:22:05.262Z,5.32
2024-02-06T21:26:27.711Z,9.43
2024-02-06T21:30:49.646Z,7.47
2024-02-06T21:35:12.211Z,10.23
2024-02-06T21:39:34.326Z,10.30
2024-02-06T21:43:56.367Z,6.32
2024-02-06T21:48:18.653Z,9.95
2024-02-06T21:52:40.678Z,12.23
2024-02-06T21:57:02.668Z,7.63
2024-02-06T22:01:25.095Z,8.30
2024-02-06T22:05:48.589Z,8.93
2024-02-06T22:10:11.285Z,7.63
2024-02-06T22:14:34.158Z,7.13
2024-02-06T22:18:56.110Z,4.38
2024-02-06T22:23:18.475Z,4.75
2024-02-06T22:27:40.276Z,5.63
2024-02-06T22:32:02.229Z,6.40
2024-02-06T22:36:24.251Z,6.03
2024-02-06T22:40:47.830Z,7.05
2024-02-06T22:45:12.501Z,4.30
2024-02-06T22:49:34.516Z,4.15
2024-02-06T22:53:56.471Z,5.13
2024-02-06T22:58:18.178Z,8.35
2024-02-06T23:02:40.283Z,7.40
2024-02-06T23:07:02.306Z,6.60
2024-02-06T23:11:24.455Z,4.45
2024-02-06T23:15:46.607Z,9.18
2024-02-06T23:20:09.989Z,6.72
2024-02-06T23:24:31.936Z,6.32
2024-02-06T23:28:54.214Z,9.13
2024-02-06T23:33:16.314Z,11.93
2024-02-06T23:37:38.394Z,9.98
2024-02-06T23:42:00.601Z,7.72
2024-02-06T23:46:22.487Z,10.52
2024-02-06T23:50:45.794Z,8.10
2024-02-06T23:55:08.060Z,9.98
2024-02-06T23:59:29.807Z,10.70
